Time;durP1;ratioP1;P1;durP2;ratioP2;P2;SDS_P1;SDS_P2;PMS_P1;PMS_P2;Temp;Humidity;BMP_temperature;BMP_pressure;BME280_temperature;BME280_humidity;BME280_pressure;Samples;Min_cycle;Max_cycle;Signal;HPM_P1;HPM_P2
2023/01/14 00:01:00;;;;;;;;;4.33;3.33;;;;;-146.44;100.00;58906.56;5075626;27;45495;-56
2023/01/14 00:03:27;;;;;;;;;3.00;3.00;;;;;-146.44;100.00;58906.56;5075425;28;45571;-57
2023/01/14 00:05:56;;;;;;;;;5.67;4.00;;;;;-146.44;100.00;58906.56;5075353;27;45462;-52
2023/01/14 00:08:22;;;;;;;;;3.00;3.00;;;;;-146.44;100.00;58906.56;5061373;28;45583;-59
2023/01/14 00:10:47;;;;;;;;;3.33;3.33;;;;;-146.44;100.00;58906.56;5075304;27;45559;-56
2023/01/14 00:13:12;;;;;;;;;3.33;3.33;;;;;-146.44;100.00;58906.56;5075472;27;45631;-55
2023/01/14 00:15:37;;;;;;;;;4.00;2.00;;;;;-146.44;100.00;58906.56;5074120;27;47319;-51
2023/01/14 00:18:03;;;;;;;;;4.67;3.00;;;;;-146.44;100.00;58906.56;5074023;27;45566;-52
2023/01/14 00:20:30;;;;;;;;;2.00;2.00;;;;;-146.44;100.00;58906.56;5075394;27;45432;-55
2023/01/14 00:22:56;;;;;;;;;3.00;3.00;;;;;-146.44;100.00;58906.56;5075333;27;45461;-55
2023/01/14 00:25:21;;;;;;;;;3.00;3.00;;;;;-146.44;100.00;58906.56;5075029;27;45485;-54
2023/01/14 00:27:46;;;;;;;;;3.00;3.00;;;;;-146.44;100.00;58906.56;5074275;27;45448;-53
2023/01/14 00:30:12;;;;;;;;;4.00;2.00;;;;;-146.44;100.00;58906.56;5075177;27;45512;-58
2023/01/14 00:32:37;;;;;;;;;2.00;2.00;;;;;-146.44;100.00;58906.56;5075257;27;45539;-58
2023/01/14 00:35:03;;;;;;;;;8.33;3.00;;;;;-146.44;100.00;58906.56;5074814;27;48343;-53
2023/01/14 00:37:28;;;;;;;;;2.00;2.00;;;;;-146.44;100.00;58906.56;5074771;27;45605;-58
2023/01/14 00:39:53;;;;;;;;;3.67;3.00;;;;;-146.44;100.00;58906.56;5075343;27;45434;-59
2023/01/14 00:42:19;;;;;;;;;2.67;2.67;;;;;-146.44;100.00;58906.56;5074679;27;45680;-59
2023/01/14 00:44:45;;;;;;;;;3.67;3.67;;;;;-146.44;100.00;58906.56;5074711;27;46104;-54
2023/01/14 00:47:10;;;;;;;;;4.00;4.00;;;;;-146.44;100.00;58906.56;5074895;27;45449;-57
2023/01/14 00:49:36;;;;;;;;;2.67;2.67;;;;;-146.44;100.00;58906.56;5074819;27;45561;-56
2023/01/14 00:52:02;;;;;;;;;5.00;4.00;;;;;-146.44;100.00;58906.56;5074467;27;45580;-55
2023/01/14 00:54:27;;;;;;;;;3.33;3.00;;;;;-146.44;100.00;58906.56;5074485;27;45462;-55
2023/01/14 00:56:53;;;;;;;;;5.67;3.33;;;;;-146.44;100.00;58906.56;5074647;27;45567;-58
2023/01/14 00:59:22;;;;;;;;;4.67;3.67;;;;;-146.44;100.00;58906.56;5070347;27;45569;-57
2023/01/14 01:01:49;;;;;;;;;5.67;3.67;;;;;-146.44;100.00;58906.56;5074593;27;45611;-58
2023/01/14 01:04:14;;;;;;;;;7.00;4.00;;;;;-146.44;100.00;58906.56;5074311;27;45517;-56
2023/01/14 01:06:40;;;;;;;;;4.67;3.33;;;;;-146.44;100.00;58906.56;5074235;27;45592;-51
2023/01/14 01:09:05;;;;;;;;;6.67;4.00;;;;;-146.44;100.00;58906.56;5060314;27;46108;-55
2023/01/14 01:11:31;;;;;;;;;4.33;4.33;;;;;-146.44;100.00;58906.56;5074173;27;45488;-52
2023/01/14 01:13:57;;;;;;;;;3.67;3.33;;;;;-146.44;100.00;58906.56;5073014;27;46570;-56
2023/01/14 01:16:24;;;;;;;;;8.33;5.00;;;;;-146.44;100.00;58906.56;5074329;27;45526;-58
2023/01/14 01:18:51;;;;;;;;;9.67;5.00;;;;;-146.44;100.00;58906.56;5074280;27;45581;-57
2023/01/14 01:21:18;;;;;;;;;9.33;5.00;;;;;-146.44;100.00;58906.56;5074329;27;45461;-56
2023/01/14 01:23:45;;;;;;;;;3.00;3.00;;;;;-146.44;100.00;58906.56;5073926;27;46405;-58
2023/01/14 01:26:16;;;;;;;;;8.33;6.33;;;;;-146.44;100.00;58906.56;5074285;27;45538;-55
2023/01/14 01:28:42;;;;;;;;;6.00;6.00;;;;;-146.44;100.00;58906.56;5073274;27;45529;-55
2023/01/14 01:31:11;;;;;;;;;8.00;5.00;;;;;-146.44;100.00;58906.56;5074193;28;45472;-56
2023/01/14 01:33:37;;;;;;;;;4.67;4.67;;;;;-146.44;100.00;58906.56;5073807;27;46305;-57
2023/01/14 01:36:10;;;;;;;;;5.67;4.00;;;;;-146.44;100.00;58906.56;5073946;27;45575;-58
2023/01/14 01:38:35;;;;;;;;;3.33;3.33;;;;;-146.44;100.00;58906.56;5074039;27;45510;-53
2023/01/14 01:41:00;;;;;;;;;4.00;4.00;;;;;-146.44;100.00;58906.56;5073909;27;45544;-58
2023/01/14 01:43:28;;;;;;;;;4.00;4.00;;;;;-146.44;100.00;58906.56;5060341;27;45520;-53
2023/01/14 01:45:56;;;;;;;;;4.67;4.67;;;;;-146.44;100.00;58906.56;5053719;28;45484;-52
2023/01/14 01:48:42;;;;;;;;;4.00;2.33;;;;;-146.44;100.00;58906.56;5058788;28;45546;-51
2023/01/14 01:51:22;;;;;;;;;3.67;3.67;;;;;-146.44;100.00;58906.56;5060883;27;45498;-57
2023/01/14 01:53:52;;;;;;;;;3.00;3.00;;;;;-146.44;100.00;58906.56;5061504;28;45484;-55
2023/01/14 01:56:22;;;;;;;;;2.00;2.00;;;;;-146.44;100.00;58906.56;5073793;27;45491;-56
2023/01/14 01:58:49;;;;;;;;;3.33;2.67;;;;;-146.44;100.00;58906.56;5073898;27;45568;-55
2023/01/14 02:01:15;;;;;;;;;5.00;4.00;;;;;-146.44;100.00;58906.56;5060561;28;45406;-55
2023/01/14 02:03:44;;;;;;;;;2.33;2.00;;;;;-146.44;100.00;58906.56;5074816;27;45399;-55
2023/01/14 02:06:10;;;;;;;;;3.00;3.00;;;;;-146.44;100.00;58906.56;5077648;27;45621;-57
2023/01/14 02:08:41;;;;;;;;;7.00;5.00;;;;;-146.44;100.00;58906.56;5077222;27;45467;-58
2023/01/14 02:11:30;;;;;;;;;3.67;2.33;;;;;-146.44;100.00;58906.56;5077406;27;45400;-54
2023/01/14 02:14:06;;;;;;;;;5.00;2.00;;;;;-146.44;100.00;58906.56;5061706;28;46426;-55
2023/01/14 02:16:48;;;;;;;;;3.00;3.00;;;;;-146.44;100.00;58906.56;5076364;27;45590;-56
2023/01/14 02:19:22;;;;;;;;;3.00;3.00;;;;;-146.44;100.00;58906.56;5063593;27;45395;-59
2023/01/14 02:22:06;;;;;;;;;5.00;3.00;;;;;-146.44;100.00;58906.56;5077327;27;45525;-58
2023/01/14 02:24:36;;;;;;;;;2.33;2.00;;;;;-146.44;100.00;58906.56;5064991;27;46358;-58
2023/01/14 02:27:35;;;;;;;;;3.00;3.00;;;;;-146.44;100.00;58906.56;5076847;27;45488;-57
2023/01/14 02:30:13;;;;;;;;;2.00;2.00;;;;;-146.44;100.00;58906.56;5076989;27;45535;-54
2023/01/14 02:32:53;;;;;;;;;1.00;1.00;;;;;-146.44;100.00;58906.56;5076856;27;45473;-57
2023/01/14 02:35:30;;;;;;;;;3.00;3.00;;;;;-146.44;100.00;58906.56;5076903;27;46245;-59
2023/01/14 02:38:25;;;;;;;;;3.00;3.00;;;;;-146.44;100.00;58906.56;5076889;27;45442;-58
2023/01/14 02:41:21;;;;;;;;;1.67;1.67;;;;;-146.44;100.00;58906.56;5076850;27;45546;-56
2023/01/14 02:44:10;;;;;;;;;1.00;1.00;;;;;-146.44;100.00;58906.56;5068806;27;45987;-55
2023/01/14 02:46:47;;;;;;;;;3.00;2.00;;;;;-146.44;100.00;58906.56;5063372;28;45493;-57
2023/01/14 02:49:29;;;;;;;;;4.00;2.00;;;;;-146.44;100.00;58906.56;5074565;27;45544;-59
2023/01/14 02:51:56;;;;;;;;;3.00;1.00;;;;;-146.44;100.00;58906.56;5068046;27;45540;-53
2023/01/14 02:54:21;;;;;;;;;1.33;1.33;;;;;-146.44;100.00;58906.56;5071328;27;45665;-54
2023/01/14 02:56:49;;;;;;;;;3.67;1.33;;;;;-146.44;100.00;58906.56;5076502;27;45798;-59
2023/01/14 02:59:45;;;;;;;;;1.00;1.00;;;;;-146.44;100.00;58906.56;5075845;27;45533;-58
2023/01/14 03:02:51;;;;;;;;;1.00;1.00;;;;;-146.44;100.00;58906.56;5065712;27;45521;-57
2023/01/14 03:05:28;;;;;;;;;1.00;1.00;;;;;-146.44;100.00;58906.56;5076757;27;45438;-55
2023/01/14 03:08:03;;;;;;;;;1.00;1.00;;;;;-146.44;100.00;58906.56;5074948;27;46182;-55
2023/01/14 03:10:39;;;;;;;;;1.00;1.00;;;;;-146.44;100.00;58906.56;5076280;27;45482;-56
2023/01/14 03:13:29;;;;;;;;;0.33;0.33;;;;;-146.44;100.00;58906.56;5076108;27;45717;-53
2023/01/14 03:16:09;;;;;;;;;1.00;1.00;;;;;-146.44;100.00;58906.56;5076385;27;45569;-57
2023/01/14 03:18:57;;;;;;;;;0.33;0.33;;;;;-146.44;100.00;58906.56;5076013;27;45565;-58
2023/01/14 03:21:36;;;;;;;;;1.00;1.00;;;;;-146.44;100.00;58906.56;5072925;27;45398;-57
2023/01/14 03:24:26;;;;;;;;;1.33;0.00;;;;;-146.44;100.00;58906.56;5063201;28;45511;-56
2023/01/14 03:26:54;;;;;;;;;0.00;0.00;;;;;-146.44;100.00;58906.56;5076151;27;45521;-55
2023/01/14 03:29:28;;;;;;;;;2.00;0.00;;;;;-146.44;100.00;58906.56;5075921;27;46266;-58
2023/01/14 03:32:05;;;;;;;;;3.00;2.33;;;;;-146.44;100.00;58906.56;5076021;27;45511;-55
2023/01/14 03:34:36;;;;;;;;;2.00;1.00;;;;;-146.44;100.00;58906.56;5076174;27;45659;-55
2023/01/14 03:37:06;;;;;;;;;4.00;1.67;;;;;-146.44;100.00;58906.56;5075937;28;45481;-53
2023/01/14 03:39:32;;;;;;;;;1.67;0.33;;;;;-146.44;100.00;58906.56;5075890;27;45500;-55
2023/01/14 03:42:19;;;;;;;;;1.00;1.00;;;;;-146.44;100.00;58906.56;5075395;27;45518;-56
2023/01/14 03:45:18;;;;;;;;;1.00;1.00;;;;;-146.44;100.00;58906.56;5074705;28;45469;-55
2023/01/14 03:47:45;;;;;;;;;1.00;1.00;;;;;-146.44;100.00;58906.56;5073728;27;45523;-58
2023/01/14 03:50:14;;;;;;;;;2.33;1.00;;;;;-146.44;100.00;58906.56;5075673;27;45503;-55
2023/01/14 03:53:01;;;;;;;;;2.67;2.67;;;;;-146.44;100.00;58906.56;5061083;27;45516;-52
2023/01/14 03:55:37;;;;;;;;;1.67;0.67;;;;;-146.44;100.00;58906.56;5075905;27;45422;-55
2023/01/14 03:58:19;;;;;;;;;1.00;0.00;;;;;-146.44;100.00;58906.56;5075653;27;45505;-55
2023/01/14 04:00:52;;;;;;;;;3.67;1.00;;;;;-146.44;100.00;58906.56;5075419;27;45514;-57
2023/01/14 04:03:19;;;;;;;;;3.00;1.00;;;;;-146.44;100.00;58906.56;5075257;27;45576;-56
2023/01/14 04:05:45;;;;;;;;;2.67;2.67;;;;;-146.44;100.00;58906.56;5075583;27;45470;-55
2023/01/14 04:08:11;;;;;;;;;5.33;1.00;;;;;-146.44;100.00;58906.56;5075411;27;45624;-57
2023/01/14 04:10:36;;;;;;;;;2.00;1.00;;;;;-146.44;100.00;58906.56;5075321;27;45897;-57
2023/01/14 04:15:45;;;;;;;;;2.00;1.00;;;;;-146.44;100.00;58906.56;5074845;27;45507;-58
2023/01/14 04:18:11;;;;;;;;;2.67;2.67;;;;;-146.44;100.00;58906.56;5075038;27;45648;-55
2023/01/14 04:20:36;;;;;;;;;3.33;2.00;;;;;-146.44;100.00;58906.56;5075263;27;51929;-58
2023/01/14 04:23:01;;;;;;;;;0.00;0.00;;;;;-146.44;100.00;58906.56;5075211;27;45439;-57
2023/01/14 04:25:27;;;;;;;;;5.00;2.00;;;;;-146.44;100.00;58906.56;5073190;27;45587;-56
2023/01/14 04:27:52;;;;;;;;;4.00;4.00;;;;;-146.44;100.00;58906.56;5075396;27;45520;-56
2023/01/14 04:30:18;;;;;;;;;3.33;2.00;;;;;-146.44;100.00;58906.56;5074915;27;45537;-59
2023/01/14 04:32:43;;;;;;;;;2.00;1.00;;;;;-146.44;100.00;58906.56;5075150;27;45476;-57
2023/01/14 04:35:08;;;;;;;;;3.00;2.00;;;;;-146.44;100.00;58906.56;5074982;27;45437;-57
2023/01/14 04:37:34;;;;;;;;;4.00;2.00;;;;;-146.44;100.00;58906.56;5075208;27;45613;-57
2023/01/14 04:39:59;;;;;;;;;4.33;2.00;;;;;-146.44;100.00;58906.56;5073712;27;47387;-59
2023/01/14 04:42:27;;;;;;;;;3.00;2.67;;;;;-146.44;100.00;58906.56;5074968;27;45567;-56
2023/01/14 04:45:01;;;;;;;;;3.00;3.00;;;;;-146.44;100.00;58906.56;5075122;27;45483;-56
2023/01/14 04:47:27;;;;;;;;;8.00;4.00;;;;;-146.44;100.00;58906.56;5073906;27;45947;-58
2023/01/14 04:49:53;;;;;;;;;4.67;3.00;;;;;-146.44;100.00;58906.56;5074587;28;45446;-56
2023/01/14 04:52:19;;;;;;;;;5.33;2.00;;;;;-146.44;100.00;58906.56;5062694;27;45534;-59
2023/01/14 04:54:44;;;;;;;;;3.00;2.00;;;;;-146.44;100.00;58906.56;5072583;27;45484;-57
2023/01/14 04:57:10;;;;;;;;;4.33;3.00;;;;;-146.44;100.00;58906.56;5074911;27;45644;-56
2023/01/14 04:59:35;;;;;;;;;3.00;2.33;;;;;-146.44;100.00;58906.56;5074574;27;45595;-55
2023/01/14 05:02:01;;;;;;;;;8.33;4.33;;;;;-146.44;100.00;58906.56;5074396;27;45500;-57
2023/01/14 05:04:26;;;;;;;;;4.33;2.00;;;;;-146.44;100.00;58906.56;5074388;27;45531;-56
2023/01/14 05:06:52;;;;;;;;;3.00;2.67;;;;;-146.44;100.00;58906.56;5074613;27;45632;-57
2023/01/14 05:09:18;;;;;;;;;3.00;2.00;;;;;-146.44;100.00;58906.56;5074370;27;46213;-54
2023/01/14 05:11:43;;;;;;;;;1.00;1.00;;;;;-146.44;100.00;58906.56;5073926;27;45507;-57
2023/01/14 05:14:08;;;;;;;;;3.00;1.00;;;;;-146.44;100.00;58906.56;5074765;27;45811;-53
2023/01/14 05:16:34;;;;;;;;;3.67;2.00;;;;;-146.44;100.00;58906.56;5073635;27;45661;-57
2023/01/14 05:18:59;;;;;;;;;2.00;2.00;;;;;-146.44;100.00;58906.56;5074196;27;46414;-55
2023/01/14 05:21:24;;;;;;;;;4.33;3.33;;;;;-146.44;100.00;58906.56;5074482;27;45538;-56
2023/01/14 05:23:50;;;;;;;;;1.33;1.33;;;;;-146.44;100.00;58906.56;5074015;28;47505;-55
2023/01/14 05:26:15;;;;;;;;;1.67;1.00;;;;;-146.44;100.00;58906.56;5074630;27;45526;-56
2023/01/14 05:28:41;;;;;;;;;0.00;0.00;;;;;-146.44;100.00;58906.56;5074114;27;45970;-56
2023/01/14 05:31:06;;;;;;;;;2.00;2.00;;;;;-146.44;100.00;58906.56;5074150;27;45476;-56
2023/01/14 05:33:32;;;;;;;;;1.33;1.33;;;;;-146.44;100.00;58906.56;5074277;27;45485;-54
2023/01/14 05:35:59;;;;;;;;;1.00;1.00;;;;;-146.44;100.00;58906.56;5074320;27;45634;-57
2023/01/14 05:38:26;;;;;;;;;8.67;4.00;;;;;-146.44;100.00;58906.56;5072943;27;46149;-58
2023/01/14 05:40:52;;;;;;;;;3.00;1.00;;;;;-146.44;100.00;58906.56;5073948;27;45563;-58
2023/01/14 05:46:06;;;;;;;;;3.33;2.33;;;;;-146.44;100.00;58906.56;5073130;27;45786;-58
2023/01/14 05:48:32;;;;;;;;;2.67;1.67;;;;;-146.44;100.00;58906.56;5073387;28;46330;-59
2023/01/14 05:50:59;;;;;;;;;4.00;2.00;;;;;-146.44;100.00;58906.56;5072982;27;45513;-54
2023/01/14 05:53:27;;;;;;;;;2.67;1.33;;;;;-146.44;100.00;58906.56;5060734;27;45586;-56
2023/01/14 05:55:53;;;;;;;;;3.00;1.00;;;;;-146.44;100.00;58906.56;5073982;28;45593;-54
2023/01/14 05:58:19;;;;;;;;;3.00;2.00;;;;;-146.44;100.00;58906.56;5073763;27;45442;-55
2023/01/14 06:06:22;;;;;;;;;1.67;1.67;;;;;-146.44;100.00;58906.56;5073676;27;45449;-56
2023/01/14 06:08:48;;;;;;;;;1.00;1.00;;;;;-146.44;100.00;58906.56;5073636;28;46128;-56
2023/01/14 06:11:13;;;;;;;;;0.33;0.00;;;;;-146.44;100.00;58906.56;5073690;28;45424;-56
2023/01/14 06:13:39;;;;;;;;;0.00;0.00;;;;;-146.44;100.00;58906.56;5073680;27;45772;-55
2023/01/14 06:16:07;;;;;;;;;1.33;1.00;;;;;-146.44;100.00;58906.56;5072736;27;45611;-57
2023/01/14 06:18:41;;;;;;;;;2.00;1.00;;;;;-146.44;100.00;58906.56;5073040;27;46091;-57
2023/01/14 06:21:18;;;;;;;;;1.00;1.00;;;;;-146.44;100.00;58906.56;5073679;27;45397;-56
2023/01/14 06:23:44;;;;;;;;;1.67;0.00;;;;;-146.44;100.00;58906.56;5073012;28;45639;-53
2023/01/14 06:26:15;;;;;;;;;3.33;1.00;;;;;-146.44;100.00;58906.56;5073593;27;45467;-57
2023/01/14 06:28:40;;;;;;;;;1.33;1.00;;;;;-146.44;100.00;58906.56;5073182;28;46140;-55
2023/01/14 06:31:10;;;;;;;;;3.00;1.00;;;;;-146.44;100.00;58906.56;5073407;27;45914;-57
2023/01/14 06:33:36;;;;;;;;;2.00;1.00;;;;;-146.44;100.00;58906.56;5073479;27;45500;-52
2023/01/14 06:36:02;;;;;;;;;1.33;1.00;;;;;-146.44;100.00;58906.56;5073447;27;45577;-55
2023/01/14 06:38:27;;;;;;;;;1.50;1.00;;;;;-146.44;100.00;58906.56;5073538;27;45472;-55
2023/01/14 06:40:52;;;;;;;;;1.00;1.00;;;;;-146.44;100.00;58906.56;5073335;27;45507;-58
2023/01/14 06:43:18;;;;;;;;;0.00;0.00;;;;;-146.44;100.00;58906.56;5073818;27;45479;-53
2023/01/14 06:45:43;;;;;;;;;4.33;2.00;;;;;-146.44;100.00;58906.56;5072399;27;45412;-57
2023/01/14 06:48:08;;;;;;;;;3.00;1.00;;;;;-146.44;100.00;58906.56;5073112;27;45496;-58
2023/01/14 06:50:34;;;;;;;;;1.00;1.00;;;;;-146.44;100.00;58906.56;5076606;27;45422;-59
2023/01/14 06:53:01;;;;;;;;;2.00;1.00;;;;;-146.44;100.00;58906.56;5062488;27;45509;-54
2023/01/14 06:55:26;;;;;;;;;1.00;1.00;;;;;-146.44;100.00;58906.56;5076841;27;45445;-55
2023/01/14 06:57:52;;;;;;;;;2.67;1.00;;;;;-146.44;100.00;58906.56;5076390;27;45426;-55
2023/01/14 07:00:17;;;;;;;;;2.00;0.67;;;;;-146.44;100.00;58906.56;5076714;27;45588;-58
2023/01/14 07:02:43;;;;;;;;;2.00;1.00;;;;;-146.44;100.00;58906.56;5076646;27;45514;-55
2023/01/14 07:05:08;;;;;;;;;1.00;1.00;;;;;-146.44;100.00;58906.56;5076577;27;45653;-56
2023/01/14 07:07:34;;;;;;;;;1.33;1.33;;;;;-146.44;100.00;58906.56;5076622;27;45477;-53
2023/01/14 07:09:59;;;;;;;;;2.33;2.33;;;;;-146.44;100.00;58906.56;5076302;27;45475;-54
2023/01/14 07:12:24;;;;;;;;;3.67;2.67;;;;;-146.44;100.00;58906.56;5076518;27;45462;-59
2023/01/14 07:14:50;;;;;;;;;2.00;1.00;;;;;-146.44;100.00;58906.56;5076504;27;45432;-55
2023/01/14 07:17:15;;;;;;;;;1.00;1.00;;;;;-146.44;100.00;58906.56;5075501;27;45426;-53
2023/01/14 07:19:40;;;;;;;;;2.33;0.00;;;;;-146.44;100.00;58906.56;5076440;27;45445;-57
2023/01/14 07:22:06;;;;;;;;;1.00;1.00;;;;;-146.44;100.00;58906.56;5076445;27;45459;-56
2023/01/14 07:24:31;;;;;;;;;1.00;1.00;;;;;-146.44;100.00;58906.56;5076230;27;45496;-56
2023/01/14 07:26:56;;;;;;;;;1.67;1.67;;;;;-146.44;100.00;58906.56;5076002;27;46089;-56
2023/01/14 07:29:22;;;;;;;;;1.33;1.00;;;;;-146.44;100.00;58906.56;5076335;27;45449;-57
2023/01/14 07:31:47;;;;;;;;;1.00;1.00;;;;;-146.44;100.00;58906.56;5076097;27;45483;-57
2023/01/14 07:34:13;;;;;;;;;1.00;0.67;;;;;-146.44;100.00;58906.56;5076387;27;45624;-56
2023/01/14 07:36:38;;;;;;;;;1.00;1.00;;;;;-146.44;100.00;58906.56;5076064;27;46008;-55
2023/01/14 07:39:04;;;;;;;;;0.67;0.67;;;;;-146.44;100.00;58906.56;5075973;28;45447;-52
2023/01/14 07:41:29;;;;;;;;;1.33;1.33;;;;;-146.44;100.00;58906.56;5076260;27;45578;-60
2023/01/14 07:43:54;;;;;;;;;2.67;2.00;;;;;-146.44;100.00;58906.56;5076059;27;45607;-57
2023/01/14 07:46:20;;;;;;;;;2.33;1.00;;;;;-146.44;100.00;58906.56;5073650;27;47389;-54
2023/01/14 07:48:45;;;;;;;;;2.33;2.33;;;;;-146.44;100.00;58906.56;5075977;27;45445;-56
2023/01/14 07:51:12;;;;;;;;;1.00;1.00;;;;;-146.44;100.00;58906.56;5073523;27;45450;-52
2023/01/14 07:53:38;;;;;;;;;3.00;1.00;;;;;-146.44;100.00;58906.56;5064570;27;45538;-56
2023/01/14 07:56:05;;;;;;;;;3.00;3.00;;;;;-146.44;100.00;58906.56;5073785;27;45693;-59
2023/01/14 07:58:31;;;;;;;;;4.00;2.33;;;;;-146.44;100.00;58906.56;5075703;27;45512;-56
2023/01/14 08:00:57;;;;;;;;;1.00;1.00;;;;;-146.44;100.00;58906.56;5074683;27;45516;-55
2023/01/14 08:03:24;;;;;;;;;1.33;0.67;;;;;-146.44;100.00;58906.56;5075473;27;45475;-56
2023/01/14 08:05:50;;;;;;;;;2.00;0.67;;;;;-146.44;100.00;58906.56;5075697;27;46388;-57
2023/01/14 08:08:16;;;;;;;;;1.67;1.67;;;;;-146.44;100.00;58906.56;5075276;27;45647;-55
2023/01/14 08:10:41;;;;;;;;;2.00;1.00;;;;;-146.44;100.00;58906.56;5075760;27;45457;-55
2023/01/14 08:13:11;;;;;;;;;1.00;1.00;;;;;-146.44;100.00;58906.56;5075532;27;45531;-57
2023/01/14 08:15:36;;;;;;;;;1.00;0.67;;;;;-146.44;100.00;58906.56;5073751;27;45569;-52
2023/01/14 08:18:02;;;;;;;;;3.00;2.33;;;;;-146.44;100.00;58906.56;5075203;27;45508;-54
2023/01/14 08:20:27;;;;;;;;;3.00;1.33;;;;;-146.44;100.00;58906.56;5075655;27;45530;-59
2023/01/14 08:23:00;;;;;;;;;2.00;1.33;;;;;-146.44;100.00;58906.56;5075421;27;45429;-55
2023/01/14 08:25:27;;;;;;;;;8.33;1.00;;;;;-146.44;100.00;58906.56;5075103;27;46206;-55
2023/01/14 08:27:53;;;;;;;;;4.33;2.00;;;;;-146.44;100.00;58906.56;5075478;27;45426;-54
2023/01/14 08:30:18;;;;;;;;;0.67;0.67;;;;;-146.44;100.00;58906.56;5073616;27;45538;-53
2023/01/14 08:32:43;;;;;;;;;2.00;2.00;;;;;-146.44;100.00;58906.56;5075229;27;45513;-59
2023/01/14 08:35:09;;;;;;;;;2.00;2.00;;;;;-146.44;100.00;58906.56;5074967;27;46629;-57
2023/01/14 08:37:35;;;;;;;;;1.67;1.67;;;;;-146.44;100.00;58906.56;5075207;27;45524;-58
2023/01/14 08:40:00;;;;;;;;;2.00;1.00;;;;;-146.44;100.00;58906.56;5075301;27;45428;-52
2023/01/14 08:42:25;;;;;;;;;1.00;1.00;;;;;-146.44;100.00;58906.56;5074900;27;45620;-60
2023/01/14 08:44:51;;;;;;;;;3.67;2.00;;;;;-146.44;100.00;58906.56;5073813;27;45483;-55
2023/01/14 08:47:16;;;;;;;;;0.33;0.33;;;;;-146.44;100.00;58906.56;5074943;28;45434;-57
2023/01/14 08:49:41;;;;;;;;;1.00;1.00;;;;;-146.44;100.00;58906.56;5073634;27;45466;-55
2023/01/14 08:52:07;;;;;;;;;2.00;1.00;;;;;-146.44;100.00;58906.56;5069841;27;45587;-56
2023/01/14 08:54:33;;;;;;;;;1.00;1.00;;;;;-146.44;100.00;58906.56;5073524;27;45529;-56
2023/01/14 08:57:00;;;;;;;;;1.67;0.33;;;;;-146.44;100.00;58906.56;5074909;28;45484;-56
2023/01/14 08:59:25;;;;;;;;;0.00;0.00;;;;;-146.44;100.00;58906.56;5074949;27;45488;-58
2023/01/14 09:01:51;;;;;;;;;3.00;0.67;;;;;-146.44;100.00;58906.56;5073166;27;45480;-58
2023/01/14 09:04:16;;;;;;;;;2.00;1.00;;;;;-146.44;100.00;58906.56;5073586;27;46087;-56
2023/01/14 09:17:39;;;;;;;;;0.67;0.67;;;;;-146.44;100.00;58906.56;5072921;28;45497;-56
2023/01/14 09:20:10;;;;;;;;;3.00;1.67;;;;;-146.44;100.00;58906.56;5072476;27;45473;-57
2023/01/14 09:22:36;;;;;;;;;0.00;0.00;;;;;-146.44;100.00;58906.56;5072098;28;45624;-57
2023/01/14 09:25:01;;;;;;;;;2.00;2.00;;;;;-146.44;100.00;58906.56;5073016;27;45658;-58
2023/01/14 09:27:29;;;;;;;;;1.00;1.00;;;;;-146.44;100.00;58906.56;5074526;27;45444;-58
2023/01/14 09:29:54;;;;;;;;;2.33;2.33;;;;;-146.44;100.00;58906.56;5074880;27;45485;-55
2023/01/14 09:32:19;;;;;;;;;0.00;0.00;;;;;-146.44;100.00;58906.56;5074141;27;45536;-59
2023/01/14 09:34:48;;;;;;;;;0.00;0.00;;;;;-146.44;100.00;58906.56;5073942;27;55275;-59
2023/01/14 09:37:22;;;;;;;;;3.00;2.00;;;;;-146.44;100.00;58906.56;5073991;27;45559;-57
2023/01/14 09:39:49;;;;;;;;;0.00;0.00;;;;;-146.44;100.00;58906.56;5074119;27;45644;-59
2023/01/14 09:42:23;;;;;;;;;2.33;1.00;;;;;-146.44;100.00;58906.56;5072485;27;45529;-58
2023/01/14 09:44:51;;;;;;;;;0.00;0.00;;;;;-146.44;100.00;58906.56;5071621;27;45428;-60
2023/01/14 09:47:22;;;;;;;;;1.00;1.00;;;;;-146.44;100.00;58906.56;5073001;27;45500;-56
2023/01/14 09:49:48;;;;;;;;;0.00;0.00;;;;;-146.44;100.00;58906.56;5067703;27;45405;-62
2023/01/14 09:52:32;;;;;;;;;1.00;1.00;;;;;-146.44;100.00;58906.56;5067805;27;45747;-62
2023/01/14 09:55:29;;;;;;;;;1.00;1.00;;;;;-146.44;100.00;58906.56;5069872;27;46104;-54
2023/01/14 09:58:00;;;;;;;;;2.00;1.00;;;;;-146.44;100.00;58906.56;5071722;27;45457;-55
2023/01/14 10:00:31;;;;;;;;;1.00;1.00;;;;;-146.44;100.00;58906.56;5067540;27;45513;-59
2023/01/14 10:03:25;;;;;;;;;1.00;1.00;;;;;-146.44;100.00;58906.56;5059379;27;45442;-58
2023/01/14 10:05:58;;;;;;;;;1.00;1.00;;;;;-146.44;100.00;58906.56;5073237;28;45516;-61
2023/01/14 10:08:25;;;;;;;;;2.00;0.67;;;;;-146.44;100.00;58906.56;5073082;27;45480;-63
2023/01/14 10:10:52;;;;;;;;;1.33;1.33;;;;;-146.44;100.00;58906.56;5062457;27;45549;-59
2023/01/14 10:13:22;;;;;;;;;0.00;0.00;;;;;-146.44;100.00;58906.56;5070345;27;45664;-58
2023/01/14 10:15:54;;;;;;;;;0.00;0.00;;;;;-146.44;100.00;58906.56;5073982;28;46137;-57
2023/01/14 10:18:25;;;;;;;;;1.00;1.00;;;;;-146.44;100.00;58906.56;5073799;27;45584;-58
2023/01/14 10:20:55;;;;;;;;;1.00;1.00;;;;;-146.44;100.00;58906.56;5062514;27;45455;-55
2023/01/14 10:23:32;;;;;;;;;2.00;2.00;;;;;-146.44;100.00;58906.56;5074159;27;45568;-57
2023/01/14 10:25:59;;;;;;;;;1.00;1.00;;;;;-146.44;100.00;58906.56;5071497;27;47124;-58
2023/01/14 10:28:28;;;;;;;;;0.33;0.33;;;;;-146.44;100.00;58906.56;5074227;27;45457;-57
2023/01/14 10:30:57;;;;;;;;;3.00;1.33;;;;;-146.44;100.00;58906.56;5069611;28;45426;-54
2023/01/14 10:33:23;;;;;;;;;0.00;0.00;;;;;-146.44;100.00;58906.56;5071268;27;45537;-56
2023/01/14 10:36:02;;;;;;;;;0.00;0.00;;;;;-146.44;100.00;58906.56;5074169;27;45585;-56
2023/01/14 10:38:29;;;;;;;;;1.67;0.67;;;;;-146.44;100.00;58906.56;5076386;27;45530;-56
2023/01/14 10:41:06;;;;;;;;;0.00;0.00;;;;;-146.44;100.00;58906.56;5071825;27;45554;-56
2023/01/14 10:43:35;;;;;;;;;2.00;0.00;;;;;-146.44;100.00;58906.56;5076578;27;45493;-51
2023/01/14 10:46:01;;;;;;;;;1.00;1.00;;;;;-146.44;100.00;58906.56;5076010;27;46330;-50
2023/01/14 10:48:36;;;;;;;;;3.00;1.00;;;;;-146.44;100.00;58906.56;5077029;27;45503;-53
2023/01/14 10:51:35;;;;;;;;;1.00;1.00;;;;;-146.44;100.00;58906.56;5075950;27;45493;-55
2023/01/14 10:54:21;;;;;;;;;1.00;0.00;;;;;-146.44;100.00;58906.56;5068806;28;45516;-56
2023/01/14 10:56:59;;;;;;;;;1.00;1.00;;;;;-146.44;100.00;58906.56;5062783;28;45523;-53
2023/01/14 10:59:27;;;;;;;;;0.00;0.00;;;;;-146.44;100.00;58906.56;5075624;27;45528;-52
2023/01/14 11:01:53;;;;;;;;;1.33;1.33;;;;;-146.44;100.00;58906.56;5077312;27;45427;-53
2023/01/14 11:04:28;;;;;;;;;1.33;1.00;;;;;-146.44;100.00;58906.56;5076825;27;45515;-55
2023/01/14 11:06:54;;;;;;;;;2.00;0.67;;;;;-146.44;100.00;58906.56;5076956;27;45536;-58
2023/01/14 11:09:28;;;;;;;;;2.00;1.00;;;;;-146.44;100.00;58906.56;5076952;27;45516;-58
2023/01/14 11:11:54;;;;;;;;;1.33;1.33;;;;;-146.44;100.00;58906.56;5076178;27;45494;-52
2023/01/14 11:14:31;;;;;;;;;1.00;1.00;;;;;-146.44;100.00;58906.56;5077227;27;45416;-55
2023/01/14 11:16:57;;;;;;;;;3.00;2.00;;;;;-146.44;100.00;58906.56;5075869;27;45519;-51
2023/01/14 11:19:24;;;;;;;;;1.67;1.67;;;;;-146.44;100.00;58906.56;5076647;27;45511;-53
2023/01/14 11:21:55;;;;;;;;;1.67;1.33;;;;;-146.44;100.00;58906.56;5076616;27;45650;-52
2023/01/14 11:24:38;;;;;;;;;2.00;2.00;;;;;-146.44;100.00;58906.56;5076723;27;45496;-58
2023/01/14 11:27:17;;;;;;;;;2.00;2.00;;;;;-146.44;100.00;58906.56;5076329;27;46178;-59
2023/01/14 11:30:02;;;;;;;;;4.00;2.00;;;;;-146.44;100.00;58906.56;5071878;27;45511;-55
2023/01/14 11:32:33;;;;;;;;;1.00;1.00;;;;;-146.44;100.00;58906.56;5069876;28;45532;-56
2023/01/14 11:35:06;;;;;;;;;2.67;2.67;;;;;-146.44;100.00;58906.56;5075339;28;45556;-53
2023/01/14 11:37:46;;;;;;;;;2.00;2.00;;;;;-146.44;100.00;58906.56;5069881;27;47132;-54
2023/01/14 11:41:28;;;;;;;;;1.00;1.00;;;;;-146.44;100.00;58906.56;5062677;27;45639;-54
2023/01/14 11:43:14;;;;;;;;;3.33;3.33;;;;;-146.44;100.00;58906.56;5056878;28;45582;-52